デリー の空港の天気 - METARとTAF

インディラ・ガンディー国際空港 ( VIDP / DEL ) - インド デリー
飛行場実況気象(Metar)
観測時間10/20 21:30 IST (10/20 16:00 UTC)
風向・風速北 2m/s
視程3500m
天気現象煙霧
なし
気温25℃
湿度44%
気圧1015hPa
METARVIDP 201600Z 01004KT 3500 HZ NSC 25/12 Q1015 NOSIG
過去の天気等 Google飛行場航空写真 Wunderground天気予報

過去48時間のMETAR

飛行場予報(TAF)
発表時間: 10/20 19:30 IST (10/20 14:00 UTC)
予報対象時間: 20日20時 IST ~ 21日5時 IST
風向・風速北北東 3m/s
視程3000m
天気現象煙霧
なし
20日23時 IST ~ 21日1時 IST に徐々に
視程2000m
天気現象煙霧 もや
TAF VIDP 201400Z 2015/2024 02006KT 3000 HZ NSC
BECMG 2018/2020 2000 HZ BR